sensor_id;sensor_type;location;lat;lon;timestamp;pressure;altitude;pressure_sealevel;temperature;humidity
54872;BME280;43914;57.680;11.982;2023-01-19T00:00:13;98775.66;;;0.41;100.00
54872;BME280;43914;57.680;11.982;2023-01-19T00:02:41;98779.70;;;0.37;100.00
54872;BME280;43914;57.680;11.982;2023-01-19T00:05:08;98777.07;;;0.32;100.00
54872;BME280;43914;57.680;11.982;2023-01-19T00:07:33;98780.61;;;0.28;100.00
54872;BME280;43914;57.680;11.982;2023-01-19T00:09:59;98779.09;;;0.25;100.00
54872;BME280;43914;57.680;11.982;2023-01-19T00:12:25;98778.80;;;0.25;100.00
54872;BME280;43914;57.680;11.982;2023-01-19T00:14:50;98773.55;;;0.23;100.00
54872;BME280;43914;57.680;11.982;2023-01-19T00:17:16;98781.89;;;0.27;100.00
54872;BME280;43914;57.680;11.982;2023-01-19T00:19:42;98777.63;;;0.28;100.00
54872;BME280;43914;57.680;11.982;2023-01-19T00:22:07;98775.27;;;0.30;100.00
54872;BME280;43914;57.680;11.982;2023-01-19T00:24:34;98776.35;;;0.33;100.00
54872;BME280;43914;57.680;11.982;2023-01-19T00:27:00;98775.77;;;0.34;100.00
54872;BME280;43914;57.680;11.982;2023-01-19T00:29:28;98778.45;;;0.34;100.00
54872;BME280;43914;57.680;11.982;2023-01-19T00:32:00;98774.16;;;0.31;100.00
54872;BME280;43914;57.680;11.982;2023-01-19T00:34:25;98769.88;;;0.26;100.00
54872;BME280;43914;57.680;11.982;2023-01-19T00:36:51;98774.54;;;0.22;100.00
54872;BME280;43914;57.680;11.982;2023-01-19T00:39:17;98775.90;;;0.19;100.00
54872;BME280;43914;57.680;11.982;2023-01-19T00:41:42;98775.04;;;0.14;100.00
54872;BME280;43914;57.680;11.982;2023-01-19T00:44:26;98773.87;;;0.10;100.00
54872;BME280;43914;57.680;11.982;2023-01-19T00:46:53;98774.17;;;0.07;100.00
54872;BME280;43914;57.680;11.982;2023-01-19T00:49:18;98771.73;;;0.01;100.00
54872;BME280;43914;57.680;11.982;2023-01-19T00:51:45;98766.21;;;-0.07;100.00
54872;BME280;43914;57.680;11.982;2023-01-19T00:54:10;98770.87;;;-0.13;100.00
54872;BME280;43914;57.680;11.982;2023-01-19T00:56:36;98773.08;;;-0.16;100.00
54872;BME280;43914;57.680;11.982;2023-01-19T00:59:09;98772.80;;;-0.18;100.00
54872;BME280;43914;57.680;11.982;2023-01-19T01:01:34;98765.83;;;-0.28;100.00
54872;BME280;43914;57.680;11.982;2023-01-19T01:04:00;98771.16;;;-0.26;100.00
54872;BME280;43914;57.680;11.982;2023-01-19T01:06:25;98777.99;;;-0.27;100.00
54872;BME280;43914;57.680;11.982;2023-01-19T01:08:51;98773.13;;;-0.31;100.00
54872;BME280;43914;57.680;11.982;2023-01-19T01:11:17;98773.48;;;-0.35;100.00
54872;BME280;43914;57.680;11.982;2023-01-19T01:13:42;98774.84;;;-0.36;100.00
54872;BME280;43914;57.680;11.982;2023-01-19T01:16:08;98777.08;;;-0.37;100.00
54872;BME280;43914;57.680;11.982;2023-01-19T01:18:34;98777.17;;;-0.39;100.00
54872;BME280;43914;57.680;11.982;2023-01-19T01:21:01;98778.78;;;-0.41;100.00
54872;BME280;43914;57.680;11.982;2023-01-19T01:23:27;98779.28;;;-0.43;100.00
54872;BME280;43914;57.680;11.982;2023-01-19T01:25:52;98781.82;;;-0.45;100.00
54872;BME280;43914;57.680;11.982;2023-01-19T01:28:18;98781.30;;;-0.45;100.00
54872;BME280;43914;57.680;11.982;2023-01-19T01:30:43;98782.54;;;-0.47;100.00
54872;BME280;43914;57.680;11.982;2023-01-19T01:33:09;98786.34;;;-0.48;100.00
54872;BME280;43914;57.680;11.982;2023-01-19T01:35:36;98789.02;;;-0.50;100.00
54872;BME280;43914;57.680;11.982;2023-01-19T01:38:02;98790.77;;;-0.50;100.00
54872;BME280;43914;57.680;11.982;2023-01-19T01:40:29;98790.00;;;-0.51;100.00
54872;BME280;43914;57.680;11.982;2023-01-19T01:42:54;98793.73;;;-0.53;100.00
54872;BME280;43914;57.680;11.982;2023-01-19T01:45:34;98795.70;;;-0.53;100.00
54872;BME280;43914;57.680;11.982;2023-01-19T01:48:33;98797.61;;;-0.57;100.00
54872;BME280;43914;57.680;11.982;2023-01-19T01:51:02;98799.40;;;-0.59;100.00
54872;BME280;43914;57.680;11.982;2023-01-19T01:54:12;98802.45;;;-0.61;100.00
54872;BME280;43914;57.680;11.982;2023-01-19T01:56:59;98805.27;;;-0.63;100.00
54872;BME280;43914;57.680;11.982;2023-01-19T01:59:41;98803.79;;;-0.64;100.00
54872;BME280;43914;57.680;11.982;2023-01-19T02:02:23;98802.30;;;-0.65;100.00
54872;BME280;43914;57.680;11.982;2023-01-19T02:05:36;98804.08;;;-0.65;100.00
54872;BME280;43914;57.680;11.982;2023-01-19T02:10:53;98811.98;;;-0.63;100.00
54872;BME280;43914;57.680;11.982;2023-01-19T02:13:40;98812.90;;;-0.62;100.00
54872;BME280;43914;57.680;11.982;2023-01-19T02:16:09;98814.06;;;-0.61;100.00
54872;BME280;43914;57.680;11.982;2023-01-19T02:18:35;98813.93;;;-0.58;100.00
54872;BME280;43914;57.680;11.982;2023-01-19T02:21:18;98812.98;;;-0.55;100.00
54872;BME280;43914;57.680;11.982;2023-01-19T02:26:17;98811.77;;;-0.56;100.00
54872;BME280;43914;57.680;11.982;2023-01-19T02:28:48;98810.58;;;-0.58;100.00
54872;BME280;43914;57.680;11.982;2023-01-19T02:31:15;98814.05;;;-0.60;100.00
54872;BME280;43914;57.680;11.982;2023-01-19T02:33:41;98814.02;;;-0.61;100.00
54872;BME280;43914;57.680;11.982;2023-01-19T02:36:10;98814.52;;;-0.62;100.00
54872;BME280;43914;57.680;11.982;2023-01-19T02:38:38;98816.63;;;-0.62;100.00
54872;BME280;43914;57.680;11.982;2023-01-19T02:41:06;98817.46;;;-0.60;100.00
54872;BME280;43914;57.680;11.982;2023-01-19T02:43:33;98820.92;;;-0.57;100.00
54872;BME280;43914;57.680;11.982;2023-01-19T02:46:00;98824.56;;;-0.54;100.00
54872;BME280;43914;57.680;11.982;2023-01-19T02:48:27;98821.70;;;-0.50;100.00
54872;BME280;43914;57.680;11.982;2023-01-19T02:50:58;98819.95;;;-0.50;100.00
54872;BME280;43914;57.680;11.982;2023-01-19T02:59:02;98822.98;;;-0.42;100.00
54872;BME280;43914;57.680;11.982;2023-01-19T03:14:00;98825.62;;;-0.44;100.00
54872;BME280;43914;57.680;11.982;2023-01-19T03:16:55;98822.15;;;-0.47;100.00
54872;BME280;43914;57.680;11.982;2023-01-19T03:19:27;98827.71;;;-0.50;100.00
54872;BME280;43914;57.680;11.982;2023-01-19T03:21:58;98822.67;;;-0.51;100.00
54872;BME280;43914;57.680;11.982;2023-01-19T03:24:29;98821.05;;;-0.50;100.00
54872;BME280;43914;57.680;11.982;2023-01-19T03:27:00;98818.51;;;-0.50;100.00
54872;BME280;43914;57.680;11.982;2023-01-19T03:29:31;98821.84;;;-0.50;100.00
54872;BME280;43914;57.680;11.982;2023-01-19T03:32:06;98822.40;;;-0.51;100.00
54872;BME280;43914;57.680;11.982;2023-01-19T03:34:33;98828.59;;;-0.50;100.00
54872;BME280;43914;57.680;11.982;2023-01-19T03:37:02;98829.55;;;-0.51;100.00
54872;BME280;43914;57.680;11.982;2023-01-19T03:39:30;98834.30;;;-0.54;100.00
54872;BME280;43914;57.680;11.982;2023-01-19T03:42:18;98833.83;;;-0.56;100.00
54872;BME280;43914;57.680;11.982;2023-01-19T03:44:45;98835.50;;;-0.57;100.00
54872;BME280;43914;57.680;11.982;2023-01-19T03:47:15;98838.64;;;-0.57;100.00
54872;BME280;43914;57.680;11.982;2023-01-19T03:49:42;98838.15;;;-0.59;100.00
54872;BME280;43914;57.680;11.982;2023-01-19T03:52:10;98842.30;;;-0.59;100.00
54872;BME280;43914;57.680;11.982;2023-01-19T03:54:37;98846.88;;;-0.59;100.00
54872;BME280;43914;57.680;11.982;2023-01-19T03:57:02;98843.25;;;-0.61;100.00
54872;BME280;43914;57.680;11.982;2023-01-19T03:59:28;98842.44;;;-0.63;100.00
54872;BME280;43914;57.680;11.982;2023-01-19T04:01:53;98841.11;;;-0.66;100.00
54872;BME280;43914;57.680;11.982;2023-01-19T04:04:19;98840.42;;;-0.66;100.00
54872;BME280;43914;57.680;11.982;2023-01-19T04:06:44;98841.36;;;-0.68;100.00
54872;BME280;43914;57.680;11.982;2023-01-19T04:09:10;98837.73;;;-0.72;100.00
54872;BME280;43914;57.680;11.982;2023-01-19T04:11:35;98838.68;;;-0.75;100.00
54872;BME280;43914;57.680;11.982;2023-01-19T04:14:00;98840.14;;;-0.79;100.00
54872;BME280;43914;57.680;11.982;2023-01-19T04:16:26;98838.61;;;-0.81;100.00
54872;BME280;43914;57.680;11.982;2023-01-19T04:18:53;98841.52;;;-0.80;100.00
54872;BME280;43914;57.680;11.982;2023-01-19T04:21:19;98841.83;;;-0.78;100.00
54872;BME280;43914;57.680;11.982;2023-01-19T04:23:45;98844.64;;;-0.75;100.00
54872;BME280;43914;57.680;11.982;2023-01-19T04:26:11;98840.00;;;-0.76;100.00
54872;BME280;43914;57.680;11.982;2023-01-19T04:28:37;98843.14;;;-0.74;100.00
54872;BME280;43914;57.680;11.982;2023-01-19T04:31:04;98845.64;;;-0.72;100.00
54872;BME280;43914;57.680;11.982;2023-01-19T04:33:31;98849.87;;;-0.69;100.00
54872;BME280;43914;57.680;11.982;2023-01-19T04:35:57;98844.21;;;-0.69;100.00
54872;BME280;43914;57.680;11.982;2023-01-19T04:38:26;98850.75;;;-0.64;100.00
54872;BME280;43914;57.680;11.982;2023-01-19T04:40:52;98848.36;;;-0.61;100.00
54872;BME280;43914;57.680;11.982;2023-01-19T04:43:19;98844.50;;;-0.60;100.00
54872;BME280;43914;57.680;11.982;2023-01-19T04:45:45;98848.14;;;-0.59;100.00
54872;BME280;43914;57.680;11.982;2023-01-19T04:48:12;98849.39;;;-0.57;100.00
54872;BME280;43914;57.680;11.982;2023-01-19T04:50:38;98854.09;;;-0.57;100.00
54872;BME280;43914;57.680;11.982;2023-01-19T04:53:04;98850.69;;;-0.54;100.00
54872;BME280;43914;57.680;11.982;2023-01-19T04:55:29;98850.82;;;-0.54;100.00
54872;BME280;43914;57.680;11.982;2023-01-19T04:57:55;98850.00;;;-0.53;100.00
54872;BME280;43914;57.680;11.982;2023-01-19T05:00:21;98847.30;;;-0.52;100.00
54872;BME280;43914;57.680;11.982;2023-01-19T05:02:48;98852.61;;;-0.53;100.00
54872;BME280;43914;57.680;11.982;2023-01-19T05:05:14;98854.45;;;-0.52;100.00
54872;BME280;43914;57.680;11.982;2023-01-19T05:07:39;98856.84;;;-0.51;100.00
54872;BME280;43914;57.680;11.982;2023-01-19T05:10:05;98856.08;;;-0.51;100.00
54872;BME280;43914;57.680;11.982;2023-01-19T05:12:32;98855.19;;;-0.50;100.00
54872;BME280;43914;57.680;11.982;2023-01-19T05:14:57;98853.43;;;-0.50;100.00
54872;BME280;43914;57.680;11.982;2023-01-19T05:17:23;98853.86;;;-0.49;100.00
54872;BME280;43914;57.680;11.982;2023-01-19T05:19:48;98855.94;;;-0.49;100.00
54872;BME280;43914;57.680;11.982;2023-01-19T05:22:15;98855.75;;;-0.47;100.00
54872;BME280;43914;57.680;11.982;2023-01-19T05:24:41;98856.55;;;-0.47;100.00
54872;BME280;43914;57.680;11.982;2023-01-19T05:27:07;98856.30;;;-0.46;100.00
54872;BME280;43914;57.680;11.982;2023-01-19T05:29:34;98854.17;;;-0.47;100.00
54872;BME280;43914;57.680;11.982;2023-01-19T05:31:59;98850.26;;;-0.52;100.00
54872;BME280;43914;57.680;11.982;2023-01-19T05:34:25;98855.77;;;-0.53;100.00
54872;BME280;43914;57.680;11.982;2023-01-19T05:36:51;98852.34;;;-0.55;100.00
54872;BME280;43914;57.680;11.982;2023-01-19T05:39:18;98851.90;;;-0.56;100.00
54872;BME280;43914;57.680;11.982;2023-01-19T05:41:44;98850.48;;;-0.61;100.00
54872;BME280;43914;57.680;11.982;2023-01-19T05:44:11;98850.48;;;-0.65;100.00
54872;BME280;43914;57.680;11.982;2023-01-19T05:46:37;98856.18;;;-0.67;100.00
54872;BME280;43914;57.680;11.982;2023-01-19T05:49:03;98860.49;;;-0.71;100.00
54872;BME280;43914;57.680;11.982;2023-01-19T05:51:30;98859.20;;;-0.72;100.00
54872;BME280;43914;57.680;11.982;2023-01-19T05:54:00;98860.61;;;-0.74;100.00
54872;BME280;43914;57.680;11.982;2023-01-19T05:56:26;98866.30;;;-0.77;100.00
54872;BME280;43914;57.680;11.982;2023-01-19T05:58:51;98871.16;;;-0.80;100.00
54872;BME280;43914;57.680;11.982;2023-01-19T06:01:17;98863.73;;;-0.82;100.00
54872;BME280;43914;57.680;11.982;2023-01-19T06:03:43;98869.26;;;-0.81;100.00
54872;BME280;43914;57.680;11.982;2023-01-19T06:06:09;98873.63;;;-0.81;100.00
54872;BME280;43914;57.680;11.982;2023-01-19T06:08:34;98871.72;;;-0.83;100.00
54872;BME280;43914;57.680;11.982;2023-01-19T06:11:00;98875.56;;;-0.83;100.00
54872;BME280;43914;57.680;11.982;2023-01-19T06:13:26;98872.30;;;-0.82;100.00
54872;BME280;43914;57.680;11.982;2023-01-19T06:15:56;98876.76;;;-0.81;100.00
54872;BME280;43914;57.680;11.982;2023-01-19T06:18:22;98874.73;;;-0.82;100.00
54872;BME280;43914;57.680;11.982;2023-01-19T06:20:47;98873.79;;;-0.81;100.00
54872;BME280;43914;57.680;11.982;2023-01-19T06:23:13;98873.88;;;-0.82;100.00
54872;BME280;43914;57.680;11.982;2023-01-19T06:25:38;98875.13;;;-0.84;100.00
54872;BME280;43914;57.680;11.982;2023-01-19T06:28:04;98876.11;;;-0.83;100.00
54872;BME280;43914;57.680;11.982;2023-01-19T06:30:29;98876.74;;;-0.84;100.00
54872;BME280;43914;57.680;11.982;2023-01-19T06:32:55;98876.38;;;-0.84;100.00
54872;BME280;43914;57.680;11.982;2023-01-19T06:35:20;98879.42;;;-0.83;100.00
54872;BME280;43914;57.680;11.982;2023-01-19T06:37:46;98875.48;;;-0.82;100.00
54872;BME280;43914;57.680;11.982;2023-01-19T06:40:11;98881.10;;;-0.80;100.00
54872;BME280;43914;57.680;11.982;2023-01-19T06:42:37;98884.67;;;-0.79;100.00
54872;BME280;43914;57.680;11.982;2023-01-19T06:45:04;98885.25;;;-0.78;100.00
54872;BME280;43914;57.680;11.982;2023-01-19T06:47:30;98889.09;;;-0.76;100.00
54872;BME280;43914;57.680;11.982;2023-01-19T06:49:57;98894.44;;;-0.73;100.00
54872;BME280;43914;57.680;11.982;2023-01-19T06:52:23;98893.90;;;-0.69;100.00
54872;BME280;43914;57.680;11.982;2023-01-19T06:54:48;98889.36;;;-0.66;100.00
54872;BME280;43914;57.680;11.982;2023-01-19T06:57:14;98891.98;;;-0.63;100.00
54872;BME280;43914;57.680;11.982;2023-01-19T06:59:40;98895.85;;;-0.60;100.00
54872;BME280;43914;57.680;11.982;2023-01-19T07:02:06;98902.16;;;-0.55;100.00
54872;BME280;43914;57.680;11.982;2023-01-19T07:04:33;98897.67;;;-0.53;100.00
54872;BME280;43914;57.680;11.982;2023-01-19T07:06:58;98897.48;;;-0.51;100.00
54872;BME280;43914;57.680;11.982;2023-01-19T07:09:24;98900.91;;;-0.49;100.00
54872;BME280;43914;57.680;11.982;2023-01-19T07:11:50;98907.77;;;-0.47;100.00
54872;BME280;43914;57.680;11.982;2023-01-19T07:14:15;98908.35;;;-0.46;100.00
54872;BME280;43914;57.680;11.982;2023-01-19T07:16:41;98906.98;;;-0.44;100.00
54872;BME280;43914;57.680;11.982;2023-01-19T07:19:06;98912.17;;;-0.42;100.00
54872;BME280;43914;57.680;11.982;2023-01-19T07:21:35;98913.79;;;-0.38;100.00
54872;BME280;43914;57.680;11.982;2023-01-19T07:24:01;98913.27;;;-0.37;100.00
54872;BME280;43914;57.680;11.982;2023-01-19T07:26:26;98917.05;;;-0.33;100.00
54872;BME280;43914;57.680;11.982;2023-01-19T07:28:52;98917.98;;;-0.30;100.00
54872;BME280;43914;57.680;11.982;2023-01-19T07:31:18;98923.05;;;-0.26;100.00
54872;BME280;43914;57.680;11.982;2023-01-19T07:33:45;98921.30;;;-0.24;100.00
54872;BME280;43914;57.680;11.982;2023-01-19T07:36:11;98924.16;;;-0.21;100.00
54872;BME280;43914;57.680;11.982;2023-01-19T07:38:36;98921.25;;;-0.19;100.00
54872;BME280;43914;57.680;11.982;2023-01-19T07:41:04;98918.23;;;-0.15;100.00
54872;BME280;43914;57.680;11.982;2023-01-19T07:43:30;98919.31;;;-0.10;100.00
54872;BME280;43914;57.680;11.982;2023-01-19T07:45:57;98917.36;;;-0.08;100.00
54872;BME280;43914;57.680;11.982;2023-01-19T07:48:23;98919.75;;;-0.06;100.00
54872;BME280;43914;57.680;11.982;2023-01-19T07:50:49;98919.13;;;-0.02;100.00
54872;BME280;43914;57.680;11.982;2023-01-19T07:53:15;98917.29;;;0.01;100.00
54872;BME280;43914;57.680;11.982;2023-01-19T07:55:41;98919.01;;;0.02;100.00
54872;BME280;43914;57.680;11.982;2023-01-19T07:58:07;98921.20;;;0.03;100.00
54872;BME280;43914;57.680;11.982;2023-01-19T08:00:34;98926.84;;;0.04;100.00
54872;BME280;43914;57.680;11.982;2023-01-19T08:03:01;98921.67;;;0.05;100.00
54872;BME280;43914;57.680;11.982;2023-01-19T08:05:27;98924.61;;;0.07;100.00
54872;BME280;43914;57.680;11.982;2023-01-19T08:07:56;98922.66;;;0.10;100.00
54872;BME280;43914;57.680;11.982;2023-01-19T08:10:23;98923.24;;;0.13;100.00
54872;BME280;43914;57.680;11.982;2023-01-19T08:12:55;98924.73;;;0.16;100.00
54872;BME280;43914;57.680;11.982;2023-01-19T08:15:22;98924.29;;;0.15;100.00
54872;BME280;43914;57.680;11.982;2023-01-19T08:18:03;98925.71;;;0.18;100.00
54872;BME280;43914;57.680;11.982;2023-01-19T08:20:34;98924.77;;;0.21;100.00
54872;BME280;43914;57.680;11.982;2023-01-19T08:22:59;98924.64;;;0.22;100.00
54872;BME280;43914;57.680;11.982;2023-01-19T08:25:33;98927.45;;;0.23;100.00
54872;BME280;43914;57.680;11.982;2023-01-19T08:28:01;98930.26;;;0.25;100.00
54872;BME280;43914;57.680;11.982;2023-01-19T08:30:26;98930.33;;;0.28;100.00
54872;BME280;43914;57.680;11.982;2023-01-19T08:32:53;98929.04;;;0.30;100.00
54872;BME280;43914;57.680;11.982;2023-01-19T08:35:22;98936.15;;;0.33;100.00
54872;BME280;43914;57.680;11.982;2023-01-19T08:37:48;98940.25;;;0.36;100.00
54872;BME280;43914;57.680;11.982;2023-01-19T08:40:15;98937.52;;;0.35;100.00
54872;BME280;43914;57.680;11.982;2023-01-19T08:42:42;98945.56;;;0.36;100.00
54872;BME280;43914;57.680;11.982;2023-01-19T08:45:08;98946.40;;;0.34;100.00
54872;BME280;43914;57.680;11.982;2023-01-19T08:47:33;98951.54;;;0.34;100.00
54872;BME280;43914;57.680;11.982;2023-01-19T08:49:59;98949.05;;;0.33;100.00
54872;BME280;43914;57.680;11.982;2023-01-19T08:52:24;98953.23;;;0.32;100.00
54872;BME280;43914;57.680;11.982;2023-01-19T08:54:51;98952.99;;;0.32;100.00
54872;BME280;43914;57.680;11.982;2023-01-19T08:57:16;98953.05;;;0.31;100.00
54872;BME280;43914;57.680;11.982;2023-01-19T08:59:42;98956.86;;;0.32;100.00
54872;BME280;43914;57.680;11.982;2023-01-19T09:02:09;98959.77;;;0.33;100.00
54872;BME280;43914;57.680;11.982;2023-01-19T09:04:35;98961.95;;;0.32;100.00
54872;BME280;43914;57.680;11.982;2023-01-19T09:07:00;98958.44;;;0.32;100.00
54872;BME280;43914;57.680;11.982;2023-01-19T09:09:26;98957.26;;;0.34;100.00
54872;BME280;43914;57.680;11.982;2023-01-19T09:11:53;98957.05;;;0.32;100.00
54872;BME280;43914;57.680;11.982;2023-01-19T09:14:18;98962.02;;;0.35;100.00
54872;BME280;43914;57.680;11.982;2023-01-19T09:16:44;98965.22;;;0.35;100.00
54872;BME280;43914;57.680;11.982;2023-01-19T09:19:09;98968.59;;;0.36;100.00
54872;BME280;43914;57.680;11.982;2023-01-19T09:21:35;98972.55;;;0.37;100.00
54872;BME280;43914;57.680;11.982;2023-01-19T09:24:00;98976.73;;;0.37;100.00
54872;BME280;43914;57.680;11.982;2023-01-19T09:26:26;98979.79;;;0.37;100.00
54872;BME280;43914;57.680;11.982;2023-01-19T09:28:51;98977.11;;;0.36;100.00
54872;BME280;43914;57.680;11.982;2023-01-19T09:31:17;98977.38;;;0.36;100.00
54872;BME280;43914;57.680;11.982;2023-01-19T09:33:42;98981.08;;;0.35;100.00
54872;BME280;43914;57.680;11.982;2023-01-19T09:36:08;98983.78;;;0.33;100.00
54872;BME280;43914;57.680;11.982;2023-01-19T09:38:33;98982.66;;;0.33;100.00
54872;BME280;43914;57.680;11.982;2023-01-19T09:40:59;98986.48;;;0.32;100.00
54872;BME280;43914;57.680;11.982;2023-01-19T09:43:36;98987.04;;;0.30;100.00
54872;BME280;43914;57.680;11.982;2023-01-19T09:49:16;98988.17;;;0.26;100.00
54872;BME280;43914;57.680;11.982;2023-01-19T09:51:45;98990.56;;;0.26;100.00
54872;BME280;43914;57.680;11.982;2023-01-19T09:54:17;98993.63;;;0.27;100.00
54872;BME280;43914;57.680;11.982;2023-01-19T09:56:47;98992.72;;;0.27;100.00
54872;BME280;43914;57.680;11.982;2023-01-19T10:15:51;98997.11;;;0.30;100.00
54872;BME280;43914;57.680;11.982;2023-01-19T10:18:25;98990.99;;;0.27;100.00
54872;BME280;43914;57.680;11.982;2023-01-19T10:21:18;98997.95;;;0.26;100.00
54872;BME280;43914;57.680;11.982;2023-01-19T10:26:48;98997.73;;;0.25;100.00
54872;BME280;43914;57.680;11.982;2023-01-19T10:29:34;98998.48;;;0.23;100.00
54872;BME280;43914;57.680;11.982;2023-01-19T10:32:10;98996.95;;;0.21;100.00
54872;BME280;43914;57.680;11.982;2023-01-19T10:34:37;98997.87;;;0.21;100.00
54872;BME280;43914;57.680;11.982;2023-01-19T10:37:33;98995.70;;;0.19;100.00
54872;BME280;43914;57.680;11.982;2023-01-19T10:40:21;99000.55;;;0.19;100.00
54872;BME280;43914;57.680;11.982;2023-01-19T10:42:49;98999.13;;;0.19;100.00
54872;BME280;43914;57.680;11.982;2023-01-19T10:45:16;99003.14;;;0.19;100.00
54872;BME280;43914;57.680;11.982;2023-01-19T10:47:43;99001.52;;;0.19;100.00
54872;BME280;43914;57.680;11.982;2023-01-19T10:50:38;99000.43;;;0.20;100.00
54872;BME280;43914;57.680;11.982;2023-01-19T10:53:04;99001.41;;;0.19;100.00
54872;BME280;43914;57.680;11.982;2023-01-19T10:55:33;99002.80;;;0.15;100.00
54872;BME280;43914;57.680;11.982;2023-01-19T10:57:59;98998.23;;;0.13;100.00
54872;BME280;43914;57.680;11.982;2023-01-19T11:00:43;99000.62;;;0.12;100.00
54872;BME280;43914;57.680;11.982;2023-01-19T11:05:47;99002.77;;;0.14;100.00
54872;BME280;43914;57.680;11.982;2023-01-19T11:08:28;99000.04;;;0.15;100.00
54872;BME280;43914;57.680;11.982;2023-01-19T11:10:58;98994.70;;;0.15;100.00
54872;BME280;43914;57.680;11.982;2023-01-19T11:13:27;98995.85;;;0.16;100.00
54872;BME280;43914;57.680;11.982;2023-01-19T11:16:19;98995.48;;;0.18;100.00
54872;BME280;43914;57.680;11.982;2023-01-19T11:18:42;98997.06;;;0.21;100.00
54872;BME280;43914;57.680;11.982;2023-01-19T11:21:11;98997.72;;;0.22;100.00
54872;BME280;43914;57.680;11.982;2023-01-19T11:26:14;98999.97;;;0.27;100.00
54872;BME280;43914;57.680;11.982;2023-01-19T11:28:47;99001.38;;;0.31;100.00
54872;BME280;43914;57.680;11.982;2023-01-19T11:33:58;99000.61;;;0.38;100.00
54872;BME280;43914;57.680;11.982;2023-01-19T11:36:29;99007.78;;;0.40;100.00
54872;BME280;43914;57.680;11.982;2023-01-19T11:38:57;99006.00;;;0.46;100.00
54872;BME280;43914;57.680;11.982;2023-01-19T11:41:37;99008.80;;;0.48;100.00
54872;BME280;43914;57.680;11.982;2023-01-19T11:44:34;99003.31;;;0.48;100.00
54872;BME280;43914;57.680;11.982;2023-01-19T11:47:12;99001.59;;;0.49;100.00
54872;BME280;43914;57.680;11.982;2023-01-19T11:49:45;99002.14;;;0.55;100.00
54872;BME280;43914;57.680;11.982;2023-01-19T11:55:32;99001.16;;;0.62;100.00
54872;BME280;43914;57.680;11.982;2023-01-19T11:58:03;98997.80;;;0.60;100.00
54872;BME280;43914;57.680;11.982;2023-01-19T12:00:41;99006.17;;;0.64;100.00
54872;BME280;43914;57.680;11.982;2023-01-19T12:03:15;99002.14;;;0.64;100.00
54872;BME280;43914;57.680;11.982;2023-01-19T12:05:45;99001.81;;;0.66;100.00
54872;BME280;43914;57.680;11.982;2023-01-19T12:08:15;99003.46;;;0.70;100.00
54872;BME280;43914;57.680;11.982;2023-01-19T12:10:46;99006.54;;;0.74;100.00
54872;BME280;43914;57.680;11.982;2023-01-19T12:13:23;99002.15;;;0.79;100.00
54872;BME280;43914;57.680;11.982;2023-01-19T12:16:03;99007.55;;;0.81;100.00
54872;BME280;43914;57.680;11.982;2023-01-19T12:18:35;99005.08;;;0.83;100.00
54872;BME280;43914;57.680;11.982;2023-01-19T12:21:03;99002.66;;;0.84;100.00
54872;BME280;43914;57.680;11.982;2023-01-19T12:28:50;99006.59;;;0.85;100.00
54872;BME280;43914;57.680;11.982;2023-01-19T12:31:21;99006.23;;;0.84;100.00
54872;BME280;43914;57.680;11.982;2023-01-19T12:33:46;99009.86;;;0.83;100.00
54872;BME280;43914;57.680;11.982;2023-01-19T12:41:41;99003.71;;;0.78;100.00
54872;BME280;43914;57.680;11.982;2023-01-19T12:44:30;99008.73;;;0.80;100.00
54872;BME280;43914;57.680;11.982;2023-01-19T12:47:01;99008.89;;;0.79;100.00
54872;BME280;43914;57.680;11.982;2023-01-19T12:49:52;99010.16;;;0.79;100.00
54872;BME280;43914;57.680;11.982;2023-01-19T12:52:33;99011.81;;;0.78;100.00
54872;BME280;43914;57.680;11.982;2023-01-19T12:55:04;98999.80;;;0.68;100.00
54872;BME280;43914;57.680;11.982;2023-01-19T13:08:54;99020.71;;;0.67;100.00
54872;BME280;43914;57.680;11.982;2023-01-19T13:11:20;99016.85;;;0.67;100.00
54872;BME280;43914;57.680;11.982;2023-01-19T13:16:56;99016.26;;;0.69;100.00
54872;BME280;43914;57.680;11.982;2023-01-19T13:19:33;99018.44;;;0.68;100.00
54872;BME280;43914;57.680;11.982;2023-01-19T13:25:12;99020.02;;;0.70;100.00
54872;BME280;43914;57.680;11.982;2023-01-19T13:27:45;99019.56;;;0.69;100.00
54872;BME280;43914;57.680;11.982;2023-01-19T13:30:15;99019.23;;;0.68;100.00
54872;BME280;43914;57.680;11.982;2023-01-19T13:32:42;99018.30;;;0.66;100.00
54872;BME280;43914;57.680;11.982;2023-01-19T13:35:13;99019.63;;;0.64;100.00
54872;BME280;43914;57.680;11.982;2023-01-19T13:37:42;99018.65;;;0.60;100.00
54872;BME280;43914;57.680;11.982;2023-01-19T13:40:35;99015.73;;;0.57;100.00
54872;BME280;43914;57.680;11.982;2023-01-19T13:43:11;99016.51;;;0.56;100.00
54872;BME280;43914;57.680;11.982;2023-01-19T13:45:40;99015.27;;;0.55;100.00
54872;BME280;43914;57.680;11.982;2023-01-19T13:48:15;99016.14;;;0.55;100.00
54872;BME280;43914;57.680;11.982;2023-01-19T13:50:41;99019.64;;;0.55;100.00
54872;BME280;43914;57.680;11.982;2023-01-19T13:53:19;99021.29;;;0.54;100.00
54872;BME280;43914;57.680;11.982;2023-01-19T13:55:46;99028.49;;;0.55;100.00
54872;BME280;43914;57.680;11.982;2023-01-19T13:58:31;99026.34;;;0.55;100.00
54872;BME280;43914;57.680;11.982;2023-01-19T14:00:57;99024.06;;;0.52;100.00
54872;BME280;43914;57.680;11.982;2023-01-19T14:03:23;99027.63;;;0.51;100.00
54872;BME280;43914;57.680;11.982;2023-01-19T14:05:52;99031.70;;;0.53;100.00
54872;BME280;43914;57.680;11.982;2023-01-19T14:08:19;99030.50;;;0.54;100.00
54872;BME280;43914;57.680;11.982;2023-01-19T14:13:31;99038.34;;;0.57;100.00
54872;BME280;43914;57.680;11.982;2023-01-19T14:16:20;99041.89;;;0.56;100.00
54872;BME280;43914;57.680;11.982;2023-01-19T14:18:45;99041.61;;;0.57;100.00
54872;BME280;43914;57.680;11.982;2023-01-19T14:21:13;99043.59;;;0.55;100.00
54872;BME280;43914;57.680;11.982;2023-01-19T14:23:50;99042.34;;;0.55;100.00